Hoogeveen, Netherlands
Current Conditions -  °F | °C
As of 11:55 PM on Tuesday 21 Oct 2014 (Local Time) from EHGG Reporting Station
Rain Showers Rain Showers  
Wind Chill: 44°   Ceiling: 1500
Heat Index: 48°   Visibility: 4mi
Dew Point: 46°   Wind: 10mph
Humidity: 93%   Direction: 270°W
Pressure: 29.56"   Gusts: NA
Location:  52.73°N, 6.52°E
Report Text: EHGG 212155Z AUTO 27009KT 230V320 7000 SHRA FEW012 BKN015CBBKN018 09/08 Q1001
Loading
Personal Weather Stations






























Interactive Weather Map
Tropical Storm Tracking
New forecast layout! Learn more

10-Day Weather Forecast

Advertisements
Track Severe Weather on mobile